Time;durP1;ratioP1;P1;durP2;ratioP2;P2;SDS_P1;SDS_P2;PMS_P1;PMS_P2;Temp;Humidity;BMP_temperature;BMP_pressure;BME280_temperature;BME280_humidity;BME280_pressure;Samples;Min_cycle;Max_cycle;Signal;HPM_P1;HPM_P2
2022/01/07 00:01:39;;;;;;;;;15.00;11.00;;;;;6.68;63.17;101562.91;5039513;28;45392;-65
2022/01/07 00:04:04;;;;;;;;;11.50;10.25;;;;;6.62;64.01;101566.56;5038591;28;45439;-67
2022/01/07 00:06:30;;;;;;;;;13.75;9.75;;;;;6.59;64.44;101564.03;5039221;28;45216;-69
2022/01/07 00:08:55;;;;;;;;;13.50;10.50;;;;;6.55;64.59;101558.94;5039220;28;45927;-68
2022/01/07 00:11:21;;;;;;;;;12.50;10.00;;;;;6.52;64.79;101533.72;5042985;28;45264;-71
2022/01/07 00:13:47;;;;;;;;;10.00;9.00;;;;;6.52;64.93;101531.09;5042806;28;45485;-69
2022/01/07 00:16:13;;;;;;;;;10.50;9.75;;;;;6.52;65.18;101519.78;5043099;28;45364;-69
2022/01/07 00:18:41;;;;;;;;;10.25;9.25;;;;;6.53;65.61;101516.25;5042532;28;46277;-73
2022/01/07 00:21:07;;;;;;;;;11.50;9.75;;;;;6.52;65.97;101514.53;5039393;28;45284;-68
2022/01/07 00:23:33;;;;;;;;;15.00;10.75;;;;;6.50;66.46;101519.81;5042604;28;45423;-71
2022/01/07 00:25:58;;;;;;;;;10.75;10.25;;;;;6.49;66.45;101505.03;5043093;28;45314;-69
2022/01/07 00:28:24;;;;;;;;;17.00;9.75;;;;;6.41;67.29;101492.16;5041550;28;46173;-68
2022/01/07 00:30:49;;;;;;;;;9.75;8.75;;;;;6.39;67.14;101500.94;5042920;28;45372;-67
2022/01/07 00:33:15;;;;;;;;;11.00;7.00;;;;;6.35;67.00;101502.81;5043145;28;45363;-67
2022/01/07 00:35:40;;;;;;;;;11.50;9.75;;;;;6.31;66.97;101493.31;5040579;28;46075;-69
2022/01/07 00:38:06;;;;;;;;;11.00;9.00;;;;;6.32;67.53;101492.44;5040691;28;46137;-74
2022/01/07 00:40:32;;;;;;;;;15.75;8.75;;;;;6.34;67.58;101498.47;5041828;28;45375;-67
2022/01/07 00:42:58;;;;;;;;;10.00;8.00;;;;;6.34;68.35;101495.88;5040111;28;45220;-69
2022/01/07 00:45:24;;;;;;;;;16.00;10.25;;;;;6.30;68.21;101489.00;5042439;28;45560;-69
2022/01/07 00:47:51;;;;;;;;;13.00;12.50;;;;;6.22;68.37;101482.28;5041690;28;46351;-66
2022/01/07 00:50:20;;;;;;;;;18.00;13.25;;;;;6.17;67.83;101499.88;5042075;28;45437;-67
2022/01/07 00:52:49;;;;;;;;;16.00;10.50;;;;;6.15;68.96;101486.81;5041118;28;45141;-67
2022/01/07 00:55:15;;;;;;;;;14.50;11.50;;;;;6.14;68.48;101496.44;5041925;28;45465;-69
2022/01/07 00:57:41;;;;;;;;;9.00;7.75;;;;;6.11;68.69;101498.28;5042377;28;46133;-65
2022/01/07 01:00:12;;;;;;;;;14.00;10.00;;;;;6.11;69.39;101488.69;5041926;28;45470;-69
2022/01/07 01:02:38;;;;;;;;;7.75;7.00;;;;;6.09;68.60;101484.41;5040721;28;45275;-67
2022/01/07 01:05:09;;;;;;;;;9.75;8.00;;;;;6.08;69.04;101482.66;5041627;28;45268;-67
2022/01/07 01:07:34;;;;;;;;;10.75;8.75;;;;;6.10;69.62;101473.91;5042144;28;46194;-68
2022/01/07 01:10:01;;;;;;;;;10.50;10.00;;;;;6.12;69.15;101469.47;5042352;28;45387;-68
2022/01/07 01:12:27;;;;;;;;;10.00;9.25;;;;;6.10;68.81;101478.28;5042293;28;45390;-69
2022/01/07 01:14:52;;;;;;;;;12.50;8.50;;;;;6.05;70.13;101482.78;5042145;28;45281;-70
2022/01/07 01:17:18;;;;;;;;;11.50;8.50;;;;;6.07;69.25;101470.50;5041322;28;46257;-69
2022/01/07 01:19:43;;;;;;;;;14.50;9.25;;;;;6.09;69.64;101466.97;5041751;28;45443;-76
2022/01/07 01:22:09;;;;;;;;;15.75;10.25;;;;;6.11;69.54;101477.38;5039566;28;45507;-69
2022/01/07 01:24:35;;;;;;;;;14.00;9.75;;;;;6.13;69.49;101475.56;5041778;28;45635;-67
2022/01/07 01:27:01;;;;;;;;;17.00;10.00;;;;;6.17;68.98;101471.13;5041989;28;46371;-71
2022/01/07 01:29:27;;;;;;;;;12.25;8.75;;;;;6.13;69.37;101473.78;5041778;28;45497;-73
2022/01/07 01:31:52;;;;;;;;;15.50;9.50;;;;;6.15;69.49;101466.75;5041868;28;45510;-72
2022/01/07 01:34:18;;;;;;;;;10.75;10.75;;;;;6.19;68.98;101469.28;5041532;28;45426;-69
2022/01/07 01:36:44;;;;;;;;;17.75;10.25;;;;;6.20;68.96;101464.00;5041493;28;45494;-67
2022/01/07 01:39:12;;;;;;;;;10.25;8.00;;;;;6.21;69.33;101463.09;5041677;28;45481;-67
2022/01/07 01:41:38;;;;;;;;;11.50;9.00;;;;;6.22;69.50;101459.59;5041474;28;45299;-76
2022/01/07 01:44:04;;;;;;;;;13.75;11.00;;;;;6.24;68.78;101462.16;5040054;28;46256;-74
2022/01/07 01:46:30;;;;;;;;;9.00;9.00;;;;;6.23;68.44;101469.16;5039878;28;45387;-74
2022/01/07 01:48:55;;;;;;;;;12.50;9.50;;;;;6.21;69.13;101460.50;5039641;28;45869;-75
2022/01/07 01:51:21;;;;;;;;;10.00;9.00;;;;;6.18;68.94;101463.22;5040030;28;45473;-74
2022/01/07 01:53:46;;;;;;;;;10.25;9.25;;;;;6.14;69.17;101458.97;5040193;28;45425;-74
2022/01/07 01:56:12;;;;;;;;;11.50;9.50;;;;;6.12;69.07;101463.38;5039823;28;46214;-74
2022/01/07 01:58:37;;;;;;;;;11.25;9.25;;;;;6.15;69.14;101461.53;5041300;28;45356;-74
2022/01/07 02:01:03;;;;;;;;;11.75;9.25;;;;;6.18;69.12;101459.75;5041785;28;45295;-74
2022/01/07 02:03:29;;;;;;;;;10.00;10.00;;;;;6.20;69.02;101457.94;5041829;28;45415;-74
2022/01/07 02:05:55;;;;;;;;;17.25;11.25;;;;;6.18;69.80;101459.75;5023252;28;46005;-74
2022/01/07 02:08:20;;;;;;;;;13.25;10.00;;;;;6.18;69.51;101441.44;5041701;28;45307;-74
2022/01/07 02:10:46;;;;;;;;;11.00;9.50;;;;;6.14;69.14;101438.03;5042163;28;45316;-74
2022/01/07 02:13:12;;;;;;;;;15.25;13.00;;;;;6.18;69.32;101447.50;5042159;28;45521;-75
2022/01/07 02:15:38;;;;;;;;;10.50;9.25;;;;;6.20;69.22;101434.38;5041722;28;45346;-75
2022/01/07 02:18:04;;;;;;;;;10.25;9.00;;;;;6.25;69.92;101435.13;5041938;28;45231;-75
2022/01/07 02:20:29;;;;;;;;;9.25;9.25;;;;;6.27;69.61;101433.31;5040862;28;45301;-75
2022/01/07 02:22:58;;;;;;;;;12.75;10.00;;;;;6.28;69.39;101429.78;5029380;28;45432;-75
2022/01/07 02:25:24;;;;;;;;;10.75;9.50;;;;;6.30;70.22;101427.97;5041733;28;45387;-74
2022/01/07 02:27:50;;;;;;;;;13.75;9.50;;;;;6.32;70.01;101426.16;5041715;28;45257;-74
2022/01/07 02:30:24;;;;;;;;;13.25;6.50;;;;;6.31;69.96;101427.06;5041873;28;45225;-74
2022/01/07 02:32:50;;;;;;;;;16.25;11.25;;;;;6.29;69.76;101423.63;5022459;28;45429;-74
2022/01/07 02:35:18;;;;;;;;;11.25;9.25;;;;;6.30;69.86;101428.81;5023251;28;45379;-75
2022/01/07 02:37:44;;;;;;;;;11.50;10.00;;;;;6.28;69.55;101428.00;5041595;28;45241;-75
2022/01/07 02:40:10;;;;;;;;;9.25;9.00;;;;;6.31;69.48;101425.28;5041788;28;45402;-75
2022/01/07 02:42:36;;;;;;;;;6.75;6.75;;;;;6.35;70.37;101410.38;5041692;28;45560;-74
2022/01/07 02:45:08;;;;;;;;;9.50;7.50;;;;;6.34;69.42;101406.91;5041546;28;45309;-75
2022/01/07 02:47:55;;;;;;;;;11.00;8.00;;;;;6.31;69.64;101404.38;5041508;28;45250;-75
2022/01/07 02:50:30;;;;;;;;;8.00;7.25;;;;;6.32;70.09;101408.72;5041190;28;45399;-75
2022/01/07 02:52:56;;;;;;;;;7.25;6.75;;;;;6.34;70.61;101409.53;5041718;28;45400;-75
2022/01/07 02:55:24;;;;;;;;;13.50;11.00;;;;;6.38;70.06;101407.66;5041383;28;45409;-75
2022/01/07 02:57:50;;;;;;;;;12.50;9.00;;;;;6.40;69.85;101411.94;5041267;28;45396;-75
2022/01/07 03:00:17;;;;;;;;;11.75;9.75;;;;;6.42;69.95;101411.91;5041395;28;45219;-75
2022/01/07 03:02:48;;;;;;;;;15.75;9.50;;;;;6.42;70.35;101410.13;5041343;28;45636;-75
2022/01/07 03:05:15;;;;;;;;;10.50;7.00;;;;;6.47;70.55;101412.59;5022969;28;46295;-75
2022/01/07 03:07:41;;;;;;;;;10.75;7.00;;;;;6.50;69.74;101402.03;5041196;28;45441;-75
2022/01/07 03:10:09;;;;;;;;;9.00;7.00;;;;;6.53;69.28;101411.56;5041258;28;45263;-75
2022/01/07 03:12:36;;;;;;;;;7.00;6.00;;;;;6.53;70.16;101399.31;5041189;28;45531;-75
2022/01/07 03:15:06;;;;;;;;;9.25;7.00;;;;;6.58;69.90;101393.94;5040962;28;46151;-75
2022/01/07 03:17:32;;;;;;;;;8.25;7.75;;;;;6.59;70.22;101400.88;5041074;28;45481;-76
2022/01/07 03:19:58;;;;;;;;;10.50;9.25;;;;;6.60;69.42;101398.22;5040340;28;45467;-75
2022/01/07 03:22:23;;;;;;;;;8.00;6.25;;;;;6.60;69.72;101400.84;5023791;28;45520;-75
2022/01/07 03:24:48;;;;;;;;;13.50;9.00;;;;;6.60;69.54;101402.59;5022854;28;45489;-75
2022/01/07 03:27:14;;;;;;;;;8.25;7.75;;;;;6.60;69.26;101394.75;5040838;28;45454;-75
2022/01/07 03:29:39;;;;;;;;;10.75;6.00;;;;;6.58;69.89;101391.34;5041028;28;45276;-75
2022/01/07 03:32:05;;;;;;;;;6.75;5.50;;;;;6.57;69.42;101394.84;5040900;28;45221;-75
2022/01/07 03:34:31;;;;;;;;;7.50;6.00;;;;;6.56;69.43;101383.53;5026592;28;47217;-76
2022/01/07 03:36:57;;;;;;;;;11.00;6.00;;;;;6.57;69.65;101377.38;5036175;28;45339;-75
2022/01/07 03:39:22;;;;;;;;;9.00;7.00;;;;;6.59;69.65;101378.19;5040821;28;45309;-76
2022/01/07 03:41:48;;;;;;;;;6.50;6.00;;;;;6.62;69.50;101383.31;5040744;28;45484;-75
2022/01/07 03:44:13;;;;;;;;;7.00;7.00;;;;;6.59;69.93;101385.19;5042035;28;45300;-76
2022/01/07 03:46:39;;;;;;;;;6.75;6.00;;;;;6.58;69.29;101386.09;5047058;28;45377;-76
2022/01/07 03:49:05;;;;;;;;;10.50;6.00;;;;;6.57;69.45;101376.53;5047465;28;45348;-75
2022/01/07 03:51:30;;;;;;;;;5.50;5.00;;;;;6.57;69.50;101379.16;5047289;28;45513;-75
2022/01/07 03:53:55;;;;;;;;;7.75;6.00;;;;;6.58;69.99;101379.09;5047335;28;45482;-76
2022/01/07 03:56:21;;;;;;;;;15.50;6.00;;;;;6.61;69.85;101378.13;5047085;28;45296;-76
2022/01/07 03:58:47;;;;;;;;;6.00;6.00;;;;;6.61;69.39;101368.50;5047239;28;45306;-76
2022/01/07 04:01:13;;;;;;;;;10.75;6.00;;;;;6.64;68.97;101375.44;5047323;28;45235;-76
2022/01/07 04:03:39;;;;;;;;;6.00;5.50;;;;;6.66;69.15;101365.75;5046974;28;46073;-76
2022/01/07 04:06:04;;;;;;;;;9.25;6.00;;;;;6.70;69.76;101364.75;5046591;28;45288;-76
2022/01/07 04:08:30;;;;;;;;;7.00;6.00;;;;;6.74;69.25;101361.13;5047315;28;45165;-76
2022/01/07 04:10:56;;;;;;;;;7.50;5.75;;;;;6.72;68.83;101350.72;5046944;28;45586;-76
2022/01/07 04:13:21;;;;;;;;;7.50;6.50;;;;;6.71;68.98;101359.47;5046984;28;45361;-75
2022/01/07 04:15:47;;;;;;;;;11.75;5.75;;;;;6.74;68.96;101348.03;5046903;28;45249;-76
2022/01/07 04:18:12;;;;;;;;;10.75;6.00;;;;;6.74;69.24;101357.66;5047084;28;45325;-75
2022/01/07 04:20:38;;;;;;;;;6.00;6.00;;;;;6.73;69.45;101356.81;5040399;28;45646;-76
2022/01/07 04:23:05;;;;;;;;;7.00;6.00;;;;;6.79;68.94;101355.72;5035311;28;45361;-76
2022/01/07 04:25:31;;;;;;;;;7.25;6.00;;;;;6.80;68.85;101349.59;5046789;28;45414;-76
2022/01/07 04:28:03;;;;;;;;;11.75;6.00;;;;;6.82;69.43;101350.41;5046907;28;45180;-76
2022/01/07 04:30:32;;;;;;;;;10.00;6.00;;;;;6.83;69.08;101339.00;5046881;28;45478;-76
2022/01/07 04:32:59;;;;;;;;;2.00;2.00;;;;;6.85;69.32;101343.28;5044880;28;45383;-76
2022/01/07 04:35:26;;;;;;;;;8.25;3.50;;;;;6.86;69.03;101344.97;5029707;28;45315;-76
2022/01/07 04:37:52;;;;;;;;;6.50;6.50;;;;;6.86;68.92;101347.59;5046555;28;45438;-76
2022/01/07 04:40:18;;;;;;;;;3.00;3.00;;;;;6.86;68.81;101347.59;5046693;28;45525;-77
2022/01/07 04:42:44;;;;;;;;;7.00;5.50;;;;;6.90;69.33;101353.59;5046509;28;45434;-76
2022/01/07 04:45:11;;;;;;;;;5.25;5.25;;;;;6.91;69.28;101350.94;5046350;28;45378;-76
2022/01/07 04:47:38;;;;;;;;;4.00;3.00;;;;;6.93;68.82;101358.72;5046700;28;45438;-76
2022/01/07 04:50:10;;;;;;;;;11.00;6.00;;;;;6.94;68.46;101371.75;5046251;28;45618;-77
2022/01/07 04:52:36;;;;;;;;;5.50;3.00;;;;;6.93;68.80;101354.34;5046673;28;45331;-76
2022/01/07 04:55:02;;;;;;;;;8.50;5.00;;;;;6.93;68.67;101358.72;5046389;28;45262;-76
2022/01/07 04:57:28;;;;;;;;;6.25;5.50;;;;;6.92;69.26;101352.63;5024694;28;45274;-76
2022/01/07 04:59:53;;;;;;;;;3.00;3.00;;;;;6.93;68.64;101348.25;5043240;28;45242;-77
2022/01/07 05:02:22;;;;;;;;;6.00;5.00;;;;;6.93;68.74;101343.00;5043042;28;46246;-76
2022/01/07 05:04:47;;;;;;;;;4.50;4.00;;;;;6.92;68.88;101350.03;5042687;28;45336;-76
2022/01/07 05:07:14;;;;;;;;;4.00;3.00;;;;;6.91;69.22;101345.69;5043269;28;45570;-76
2022/01/07 05:09:39;;;;;;;;;6.25;3.00;;;;;6.91;68.88;101329.97;5043087;28;45261;-77
2022/01/07 05:12:05;;;;;;;;;5.00;2.25;;;;;6.90;68.75;101319.56;5042866;28;46056;-76
2022/01/07 05:14:31;;;;;;;;;4.75;4.50;;;;;6.86;68.74;101317.94;5042932;28;45456;-77
2022/01/07 05:16:57;;;;;;;;;6.00;5.00;;;;;6.82;69.19;101326.81;5043096;28;45208;-77
2022/01/07 05:19:23;;;;;;;;;4.00;4.00;;;;;6.77;69.27;101319.13;5042435;28;45461;-76
2022/01/07 05:21:48;;;;;;;;;6.00;4.50;;;;;6.72;69.25;101329.75;5027173;28;45270;-77
2022/01/07 05:24:13;;;;;;;;;5.50;3.00;;;;;6.67;69.57;101323.81;5040724;28;45253;-77
2022/01/07 05:26:39;;;;;;;;;3.00;2.00;;;;;6.64;69.38;101339.63;5043003;28;45217;-76
2022/01/07 05:29:05;;;;;;;;;0.00;0.00;;;;;6.58;69.73;101333.75;5042854;28;45581;-77
2022/01/07 05:31:31;;;;;;;;;3.00;3.00;;;;;6.55;69.77;101333.81;5042806;28;46073;-76
2022/01/07 05:33:56;;;;;;;;;6.00;1.50;;;;;6.51;69.42;101343.56;5032448;28;45432;-75
2022/01/07 05:36:22;;;;;;;;;4.50;3.00;;;;;6.50;70.38;101344.47;5033632;28;45396;-71
2022/01/07 05:38:48;;;;;;;;;2.75;2.75;;;;;6.54;70.61;101359.16;5042475;28;45561;-74
2022/01/07 05:41:14;;;;;;;;;3.00;3.00;;;;;6.59;70.45;101346.78;5042592;28;45346;-72
2022/01/07 05:43:40;;;;;;;;;2.00;1.00;;;;;6.63;69.79;101344.91;5042605;28;45257;-72
2022/01/07 05:46:08;;;;;;;;;3.00;2.50;;;;;6.64;70.17;101341.41;5042754;28;45444;-72
2022/01/07 05:48:33;;;;;;;;;8.00;4.00;;;;;6.63;69.78;101332.66;5042009;28;45360;-72
2022/01/07 05:50:59;;;;;;;;;8.50;7.00;;;;;6.67;70.24;101343.91;5042027;28;45369;-73
2022/01/07 05:53:24;;;;;;;;;10.50;2.75;;;;;6.68;69.95;101346.47;5042248;28;45274;-72
2022/01/07 05:55:50;;;;;;;;;6.00;2.00;;;;;6.67;69.80;101346.53;5042568;28;45397;-72
2022/01/07 05:58:15;;;;;;;;;3.00;3.00;;;;;6.67;69.97;101354.38;5042163;28;45452;-72
2022/01/07 06:00:41;;;;;;;;;5.00;3.00;;;;;6.62;70.03;101348.44;5042213;28;45383;-72
2022/01/07 06:03:06;;;;;;;;;3.00;3.00;;;;;6.59;69.54;101356.41;5042064;28;45546;-72
2022/01/07 06:05:32;;;;;;;;;5.75;3.50;;;;;6.59;69.69;101349.41;5041821;28;45309;-72
2022/01/07 06:07:58;;;;;;;;;6.00;6.00;;;;;6.58;69.85;101359.91;5041740;28;45486;-72
2022/01/07 06:10:23;;;;;;;;;4.00;2.25;;;;;6.56;69.40;101352.13;5041999;28;45991;-72
2022/01/07 06:12:48;;;;;;;;;10.75;5.00;;;;;6.57;70.02;101348.59;5041926;28;45343;-73
2022/01/07 06:15:14;;;;;;;;;5.00;5.00;;;;;6.58;69.82;101355.53;5042261;28;45505;-73
2022/01/07 06:17:40;;;;;;;;;6.25;4.00;;;;;6.59;70.20;101352.00;5042128;28;45514;-73
2022/01/07 06:20:07;;;;;;;;;6.25;2.50;;;;;6.60;69.70;101352.88;5040023;28;46203;-73
2022/01/07 06:22:34;;;;;;;;;7.75;5.50;;;;;6.60;70.04;101343.25;5010511;28;45289;-72
2022/01/07 06:25:00;;;;;;;;;7.75;5.25;;;;;6.66;70.43;101368.38;5041881;28;45233;-73
2022/01/07 06:27:25;;;;;;;;;6.50;3.00;;;;;6.72;70.51;101357.72;5042142;28;45348;-72
2022/01/07 06:29:51;;;;;;;;;1.00;0.00;;;;;6.79;69.92;101366.19;5041779;28;46085;-72
2022/01/07 06:32:16;;;;;;;;;4.00;3.50;;;;;6.79;69.74;101358.34;5028263;28;45340;-72
2022/01/07 06:34:42;;;;;;;;;6.25;3.00;;;;;6.81;69.96;101361.78;5025228;28;45436;-72
2022/01/07 06:37:07;;;;;;;;;3.75;2.75;;;;;6.79;69.94;101351.34;5038727;28;45447;-72
2022/01/07 06:39:34;;;;;;;;;14.50;4.00;;;;;6.81;70.33;101351.31;5041623;28;45380;-72
2022/01/07 06:42:00;;;;;;;;;5.00;5.00;;;;;6.83;70.38;101342.47;5041264;28;45316;-73
2022/01/07 06:44:26;;;;;;;;;2.50;2.25;;;;;6.85;69.96;101342.41;5041449;28;45305;-72
2022/01/07 06:46:52;;;;;;;;;10.00;8.25;;;;;6.88;70.40;101345.81;5041383;28;45162;-73
2022/01/07 06:49:18;;;;;;;;;3.00;3.00;;;;;6.93;70.31;101343.00;5040900;28;45411;-73
2022/01/07 06:51:44;;;;;;;;;5.00;4.00;;;;;6.95;70.07;101333.34;5041312;28;45163;-72
2022/01/07 06:54:11;;;;;;;;;5.50;4.00;;;;;6.97;70.34;101344.63;5041448;28;45396;-72
2022/01/07 06:56:43;;;;;;;;;5.75;5.75;;;;;7.02;69.92;101341.84;5041142;28;45427;-73
2022/01/07 06:59:12;;;;;;;;;3.00;3.00;;;;;7.05;70.54;101336.50;5041316;28;45359;-72
2022/01/07 07:01:41;;;;;;;;;2.50;2.50;;;;;7.06;70.01;101335.59;5040967;28;45473;-72
2022/01/07 07:04:06;;;;;;;;;6.00;3.00;;;;;7.05;70.33;101345.22;5040919;28;45308;-72
2022/01/07 07:06:32;;;;;;;;;9.00;3.00;;;;;7.07;70.03;101345.16;5041112;28;45160;-72
2022/01/07 07:08:57;;;;;;;;;5.50;4.50;;;;;7.06;70.12;101344.31;5041122;28;45401;-72
2022/01/07 07:11:23;;;;;;;;;5.25;3.00;;;;;7.06;70.27;101348.69;5040978;28;45372;-72
2022/01/07 07:13:49;;;;;;;;;7.00;6.25;;;;;7.04;70.54;101359.22;5041251;28;45288;-72
2022/01/07 07:16:15;;;;;;;;;5.75;5.00;;;;;7.05;70.25;101349.59;5042057;28;45220;-72
2022/01/07 07:18:41;;;;;;;;;4.00;2.00;;;;;7.04;70.49;101351.38;5040307;28;46462;-72
2022/01/07 07:21:06;;;;;;;;;4.00;3.50;;;;;7.06;70.73;101354.78;5021120;28;46363;-72
2022/01/07 07:23:32;;;;;;;;;6.00;4.00;;;;;7.07;70.57;101355.63;5025713;28;45343;-72
2022/01/07 07:25:57;;;;;;;;;3.00;2.50;;;;;7.09;70.88;101359.91;5040822;28;45402;-72
2022/01/07 07:28:23;;;;;;;;;4.50;2.50;;;;;7.12;70.55;101361.59;5040579;28;46215;-72
2022/01/07 07:30:50;;;;;;;;;6.50;5.50;;;;;7.13;70.75;101345.81;5040637;28;45308;-72
2022/01/07 07:38:12;;;;;;;;;7.50;3.50;;;;;7.24;70.99;101363.75;5040247;28;45438;-72
2022/01/07 07:40:38;;;;;;;;;2.25;2.25;;;;;7.25;70.95;101371.56;5040526;28;45260;-72
2022/01/07 07:43:03;;;;;;;;;5.75;4.50;;;;;7.30;71.40;101376.66;5040722;28;45453;-72
2022/01/07 07:45:29;;;;;;;;;7.50;5.25;;;;;7.32;71.09;101377.44;5040525;28;45609;-73
2022/01/07 07:47:55;;;;;;;;;7.50;3.50;;;;;7.34;71.26;101378.25;5040285;28;46213;-72
2022/01/07 07:50:20;;;;;;;;;7.25;4.50;;;;;7.33;71.45;101388.78;5040109;28;45356;-73
2022/01/07 07:52:46;;;;;;;;;6.00;3.00;;;;;7.31;71.93;101380.13;5041441;28;45242;-73
2022/01/07 07:55:11;;;;;;;;;10.75;4.00;;;;;7.25;72.12;101378.56;5041306;28;45291;-72
2022/01/07 07:57:37;;;;;;;;;6.75;5.00;;;;;7.25;72.21;101373.31;5040394;28;46004;-72
2022/01/07 08:00:05;;;;;;;;;6.50;5.00;;;;;7.29;72.41;101372.31;5040156;28;45316;-72
2022/01/07 08:02:31;;;;;;;;;4.50;3.00;;;;;7.28;72.43;101361.00;5040140;28;45409;-71
2022/01/07 08:04:57;;;;;;;;;5.25;5.00;;;;;7.30;72.43;101360.94;5039658;28;45347;-72
2022/01/07 08:07:22;;;;;;;;;14.25;3.00;;;;;7.31;72.87;101380.97;5012334;28;45467;-72
2022/01/07 08:09:50;;;;;;;;;7.50;3.00;;;;;7.30;72.64;101381.03;5015064;28;45317;-71
2022/01/07 08:12:19;;;;;;;;;4.75;3.00;;;;;7.31;72.83;101390.59;5020209;28;45408;-72
2022/01/07 08:17:29;;;;;;;;;8.75;5.00;;;;;7.27;72.75;101385.50;5005798;28;45390;-71
2022/01/07 08:19:54;;;;;;;;;4.50;2.00;;;;;7.26;73.10;101396.00;5020592;28;45365;-70
2022/01/07 08:22:20;;;;;;;;;5.50;3.00;;;;;7.25;73.24;101391.66;5032296;28;45317;-72
2022/01/07 08:24:46;;;;;;;;;4.50;4.50;;;;;7.28;73.59;101392.44;5010879;28;45199;-72
2022/01/07 08:27:11;;;;;;;;;2.25;2.25;;;;;7.33;73.18;101391.41;5032500;28;45401;-71
2022/01/07 08:29:39;;;;;;;;;3.00;3.00;;;;;7.32;73.63;101380.06;5037819;28;45381;-71
2022/01/07 08:34:56;;;;;;;;;6.00;3.00;;;;;7.29;73.26;101377.56;5038675;28;45257;-70
2022/01/07 08:37:27;;;;;;;;;3.50;2.75;;;;;7.27;73.05;101377.63;5041325;28;45343;-73
2022/01/07 08:39:54;;;;;;;;;10.00;5.00;;;;;7.27;72.92;101385.50;5022873;28;45209;-69
2022/01/07 08:42:22;;;;;;;;;2.75;2.00;;;;;7.29;73.40;101372.31;5022388;28;45303;-69
2022/01/07 08:44:49;;;;;;;;;2.00;1.50;;;;;7.32;73.36;101361.72;5040803;28;45376;-69
2022/01/07 08:47:15;;;;;;;;;3.00;3.00;;;;;7.34;73.33;101362.50;5035202;28;45367;-69
2022/01/07 08:49:41;;;;;;;;;2.00;1.00;;;;;7.34;72.98;101352.03;5006255;28;45520;-68
2022/01/07 08:52:06;;;;;;;;;1.75;1.75;;;;;7.35;73.06;101347.69;5022111;28;45440;-69
2022/01/07 08:54:32;;;;;;;;;6.00;1.25;;;;;7.36;73.25;101329.28;4985231;28;46297;-69
2022/01/07 08:56:57;;;;;;;;;2.00;2.00;;;;;7.36;73.08;101329.28;5022733;28;45425;-67
2022/01/07 08:59:23;;;;;;;;;5.00;3.00;;;;;7.37;73.30;101311.78;5022888;28;45420;-67
2022/01/07 09:01:48;;;;;;;;;4.50;2.00;;;;;7.40;73.58;101312.50;5023681;28;45464;-68
2022/01/07 09:04:14;;;;;;;;;2.50;1.00;;;;;7.40;72.92;101323.00;5023747;28;45423;-69
2022/01/07 09:06:39;;;;;;;;;0.00;0.00;;;;;7.39;72.73;101330.91;5021389;28;46007;-68
2022/01/07 09:09:05;;;;;;;;;0.75;0.50;;;;;7.38;72.38;101351.03;5022773;28;45440;-69
2022/01/07 09:11:30;;;;;;;;;0.75;0.75;;;;;7.39;72.78;101360.59;5022201;28;45316;-68
2022/01/07 09:13:58;;;;;;;;;1.25;1.00;;;;;7.41;72.43;101360.53;5022123;28;45424;-68
2022/01/07 09:16:25;;;;;;;;;1.00;1.00;;;;;7.42;72.75;101367.47;5021406;28;45462;-67
2022/01/07 09:18:50;;;;;;;;;0.00;0.00;;;;;7.45;72.66;101364.78;5021781;28;45305;-70
2022/01/07 09:21:17;;;;;;;;;6.25;0.00;;;;;7.43;72.33;101370.06;5034420;28;45420;-70
2022/01/07 09:23:42;;;;;;;;;1.75;1.00;;;;;7.44;72.37;101363.06;5042237;28;45391;-72
2022/01/07 09:26:09;;;;;;;;;5.00;1.00;;;;;7.45;72.69;101367.38;5042142;28;47427;-70
2022/01/07 09:28:35;;;;;;;;;2.00;1.00;;;;;7.43;72.63;101363.97;5041668;28;45404;-69
2022/01/07 09:31:01;;;;;;;;;7.75;3.50;;;;;7.39;72.65;101363.22;5041743;28;45463;-72
2022/01/07 09:33:27;;;;;;;;;1.75;1.00;;;;;7.36;72.80;101355.47;5040874;28;45346;-71
2022/01/07 09:35:53;;;;;;;;;0.50;0.50;;;;;7.31;72.40;101365.25;5041073;28;45429;-72
2022/01/07 09:38:21;;;;;;;;;3.50;2.00;;;;;7.30;72.53;101363.53;5042128;28;45299;-70
2022/01/07 09:40:46;;;;;;;;;0.75;0.75;;;;;7.28;72.81;101368.84;5042148;28;45194;-70
2022/01/07 09:43:14;;;;;;;;;2.00;2.00;;;;;7.29;73.12;101372.31;5041368;28;45311;-70
2022/01/07 09:45:40;;;;;;;;;2.50;1.50;;;;;7.29;72.43;101361.84;5042204;28;45997;-71
2022/01/07 09:48:08;;;;;;;;;1.25;0.00;;;;;7.29;72.82;101361.84;5041856;28;45293;-71
2022/01/07 09:50:34;;;;;;;;;4.25;1.25;;;;;7.28;73.04;101368.84;5042305;28;45363;-72
2022/01/07 09:53:07;;;;;;;;;1.50;0.50;;;;;7.28;72.53;101360.13;5041887;28;45391;-75
2022/01/07 09:55:33;;;;;;;;;2.00;1.00;;;;;7.25;72.53;101366.31;5042298;28;45986;-76
2022/01/07 09:58:00;;;;;;;;;2.50;2.00;;;;;7.28;72.92;101361.00;5042140;28;45739;-74
2022/01/07 10:00:32;;;;;;;;;1.75;1.00;;;;;7.31;72.53;101361.78;5043793;28;45362;-74
2022/01/07 10:03:08;;;;;;;;;2.75;2.00;;;;;7.41;72.58;101366.63;5042588;28;45341;-72
2022/01/07 10:05:44;;;;;;;;;4.50;2.50;;;;;7.50;72.38;101350.59;5041403;28;45431;-73
2022/01/07 10:08:23;;;;;;;;;2.00;2.00;;;;;7.68;72.36;101363.94;5041587;28;45319;-76
2022/01/07 10:11:09;;;;;;;;;2.00;1.00;;;;;7.86;72.12;101357.13;5046921;28;45252;-74
2022/01/07 10:13:34;;;;;;;;;1.25;1.25;;;;;8.00;72.10;101349.59;5024205;28;45587;-69
2022/01/07 10:16:22;;;;;;;;;1.00;1.00;;;;;8.13;71.25;101349.03;5043715;28;45318;-70
2022/01/07 10:18:48;;;;;;;;;5.00;2.00;;;;;8.22;70.96;101354.84;5051452;28;45264;-70
2022/01/07 10:21:16;;;;;;;;;6.25;1.00;;;;;8.23;70.78;101364.44;5041453;28;45327;-65
2022/01/07 10:23:46;;;;;;;;;0.25;0.25;;;;;8.19;70.60;101347.09;5041793;28;45240;-67
2022/01/07 10:26:14;;;;;;;;;2.00;0.25;;;;;8.18;70.59;101353.25;5041592;28;45442;-65
2022/01/07 10:28:39;;;;;;;;;1.00;1.00;;;;;8.15;70.70;101354.25;5041645;28;45248;-68
2022/01/07 10:31:09;;;;;;;;;0.00;0.00;;;;;8.15;70.32;101345.53;5041903;28;45311;-68
2022/01/07 10:33:36;;;;;;;;;2.00;1.00;;;;;8.15;70.44;101340.28;5041172;28;45363;-68
2022/01/07 10:36:08;;;;;;;;;1.50;1.00;;;;;8.17;70.26;101331.41;5041252;28;46241;-69
2022/01/07 10:38:36;;;;;;;;;1.50;1.25;;;;;8.24;70.48;101324.16;5022801;28;45196;-68
2022/01/07 10:41:02;;;;;;;;;3.75;1.00;;;;;8.28;70.27;101321.31;5040250;28;45659;-68
2022/01/07 10:43:33;;;;;;;;;0.00;0.00;;;;;8.34;70.52;101328.97;5041269;28;45506;-68
2022/01/07 10:46:19;;;;;;;;;0.00;0.00;;;;;8.35;70.16;101340.34;5041277;28;45455;-68
2022/01/07 10:49:11;;;;;;;;;2.00;0.00;;;;;8.36;69.99;101342.03;5039486;28;45449;-68
2022/01/07 10:51:52;;;;;;;;;0.25;0.25;;;;;8.35;70.05;101333.31;5034719;28;45530;-67
2022/01/07 10:54:17;;;;;;;;;2.50;0.00;;;;;8.41;69.42;101326.13;5039743;28;45395;-72
2022/01/07 10:56:47;;;;;;;;;1.00;1.00;;;;;8.48;69.45;101336.31;5040611;28;45554;-70
2022/01/07 10:59:17;;;;;;;;;0.00;0.00;;;;;8.61;69.47;101334.00;5040657;28;45331;-71
2022/01/07 11:01:50;;;;;;;;;0.00;0.00;;;;;8.72;68.48;101338.84;5040607;28;45558;-71
2022/01/07 11:04:19;;;;;;;;;0.75;0.75;;;;;8.82;68.67;101337.53;5040252;28;45728;-65
2022/01/07 11:06:46;;;;;;;;;0.00;0.00;;;;;8.91;67.93;101332.72;5036526;28;45686;-69
2022/01/07 11:09:14;;;;;;;;;0.00;0.00;;;;;8.91;67.89;101329.25;5040369;28;45597;-72
2022/01/07 11:11:44;;;;;;;;;2.00;0.00;;;;;8.89;67.71;101329.31;5040906;28;45296;-61
2022/01/07 11:14:12;;;;;;;;;1.00;0.00;;;;;8.93;68.04;101324.81;5038439;28;45530;-60
2022/01/07 11:16:39;;;;;;;;;0.75;0.00;;;;;8.94;67.65;101318.63;5039164;28;46527;-60
2022/01/07 11:19:07;;;;;;;;;1.00;1.00;;;;;8.98;68.02;101314.94;5033495;28;45529;-64
2022/01/07 11:21:34;;;;;;;;;0.50;0.00;;;;;9.04;67.78;101322.56;5038937;28;45685;-63
2022/01/07 11:24:35;;;;;;;;;0.00;0.00;;;;;9.04;67.16;101308.56;5039138;28;45467;-62
2022/01/07 11:27:09;;;;;;;;;2.50;1.00;;;;;8.95;67.57;101302.78;5039248;28;46153;-60
2022/01/07 11:29:41;;;;;;;;;2.00;0.00;;;;;8.90;67.56;101319.66;5039479;28;45399;-60
2022/01/07 11:32:25;;;;;;;;;2.00;1.00;;;;;8.89;67.54;101325.84;5032070;28;45558;-60
2022/01/07 11:34:55;;;;;;;;;0.00;0.00;;;;;8.87;67.78;101327.69;5017584;28;45640;-60
2022/01/07 11:37:37;;;;;;;;;0.50;0.50;;;;;8.85;67.95;101327.75;5039206;28;45347;-59
2022/01/07 11:40:05;;;;;;;;;0.25;0.25;;;;;8.81;67.55;101328.78;5040015;28;45290;-61